createdAt,value
2017-11-12T00:02:28.711Z,8.20
2017-11-12T00:04:56.799Z,9.90
2017-11-12T00:07:24.886Z,10.30
2017-11-12T00:09:52.951Z,9.13
2017-11-12T00:12:21.034Z,8.83
2017-11-12T00:14:49.110Z,8.77
2017-11-12T00:17:17.985Z,9.13
2017-11-12T00:19:46.048Z,8.80
2017-11-12T00:22:14.134Z,10.30
2017-11-12T00:24:42.220Z,11.70
2017-11-12T00:27:11.080Z,13.13
2017-11-12T00:29:39.168Z,12.53
2017-11-12T00:32:08.025Z,14.50
2017-11-12T00:34:36.223Z,12.47
2017-11-12T00:37:05.097Z,11.10
2017-11-12T00:39:33.183Z,13.00
2017-11-12T00:42:01.264Z,10.60
2017-11-12T00:44:30.109Z,11.20
2017-11-12T00:46:58.194Z,11.10
2017-11-12T00:49:26.285Z,11.30
2017-11-12T00:51:55.132Z,10.23
2017-11-12T00:54:23.220Z,11.40
2017-11-12T00:56:51.307Z,14.77
2017-11-12T00:59:19.388Z,12.30
2017-11-12T01:01:48.234Z,10.23
2017-11-12T01:04:16.320Z,10.70
2017-11-12T01:06:44.393Z,10.30
2017-11-12T01:09:12.479Z,10.43
2017-11-12T01:11:40.560Z,10.33
2017-11-12T01:14:09.421Z,11.83
2017-11-12T01:16:37.515Z,10.97
2017-11-12T01:19:06.386Z,10.73
2017-11-12T01:21:34.469Z,9.93
2017-11-12T01:24:03.321Z,10.90
2017-11-12T01:26:31.407Z,12.20
2017-11-12T01:28:59.484Z,10.23
2017-11-12T01:31:27.568Z,10.53
2017-11-12T01:33:55.648Z,11.37
2017-11-12T01:36:24.504Z,11.57
2017-11-12T01:38:52.585Z,10.43
2017-11-12T01:41:20.680Z,12.00
2017-11-12T01:43:49.525Z,11.03
2017-11-12T01:46:17.620Z,11.47
2017-11-12T01:48:45.693Z,10.57
2017-11-12T01:51:13.804Z,12.07
2017-11-12T01:53:41.869Z,12.17
2017-11-12T01:56:09.958Z,14.50
2017-11-12T01:58:38.037Z,10.10
2017-11-12T02:01:06.119Z,12.83
2017-11-12T02:03:34.211Z,11.70
2017-11-12T02:06:02.284Z,14.13
2017-11-12T02:08:30.377Z,11.70
2017-11-12T02:10:58.458Z,11.20
2017-11-12T02:13:26.540Z,11.70
2017-11-12T02:15:54.622Z,12.20
2017-11-12T02:18:22.712Z,11.90
2017-11-12T02:20:50.797Z,11.73
2017-11-12T02:23:18.880Z,11.37
2017-11-12T02:25:47.733Z,12.73
2017-11-12T02:28:15.825Z,13.57
2017-11-12T02:30:43.897Z,12.80
2017-11-12T02:33:11.977Z,11.73
2017-11-12T02:35:40.130Z,13.20
2017-11-12T02:38:08.205Z,12.77
2017-11-12T02:40:36.294Z,13.23
2017-11-12T02:43:05.141Z,12.10
2017-11-12T02:45:33.258Z,12.67
2017-11-12T02:48:02.111Z,15.00
2017-11-12T02:50:30.193Z,12.07
2017-11-12T02:52:58.278Z,12.87
2017-11-12T02:55:27.129Z,13.87
2017-11-12T02:57:55.210Z,15.80
2017-11-12T03:00:23.290Z,13.30
2017-11-12T03:02:51.372Z,14.83
2017-11-12T03:05:19.459Z,13.23
2017-11-12T03:07:48.301Z,15.47
2017-11-12T03:10:16.393Z,14.53
2017-11-12T03:12:44.482Z,13.33
2017-11-12T03:15:13.345Z,14.70
2017-11-12T03:17:41.427Z,13.60
2017-11-12T03:20:09.504Z,14.47
2017-11-12T03:22:37.596Z,13.37
2017-11-12T03:25:05.680Z,14.07
2017-11-12T03:27:33.771Z,16.60
2017-11-12T03:30:01.851Z,13.30
2017-11-12T03:32:29.932Z,13.40
2017-11-12T03:34:58.013Z,15.13
2017-11-12T03:37:26.101Z,16.57
2017-11-12T03:39:54.948Z,15.17
2017-11-12T03:42:23.044Z,17.77
2017-11-12T03:44:51.124Z,16.90
2017-11-12T03:47:19.214Z,21.37
2017-11-12T03:49:48.066Z,16.43
2017-11-12T03:52:16.151Z,15.80
2017-11-12T03:54:44.236Z,16.80
2017-11-12T03:57:13.081Z,19.40
2017-11-12T03:59:41.161Z,14.03
2017-11-12T04:02:09.262Z,15.30
2017-11-12T04:04:38.107Z,15.10
2017-11-12T04:20:15.585Z,13.57
2017-11-12T04:22:43.665Z,13.80
2017-11-12T04:25:11.762Z,17.17
2017-11-12T04:27:40.607Z,14.27
2017-11-12T04:30:08.692Z,14.00
2017-11-12T04:32:36.777Z,15.27
2017-11-12T04:35:04.888Z,14.87
2017-11-12T04:37:33.253Z,16.80
2017-11-12T04:40:01.376Z,14.70
2017-11-12T04:42:29.456Z,15.83
2017-11-12T04:44:57.540Z,16.40
2017-11-12T04:47:25.627Z,16.07
2017-11-12T04:49:54.469Z,16.90
2017-11-12T04:52:22.667Z,16.73
2017-11-12T04:54:50.747Z,17.60
2017-11-12T04:57:18.893Z,21.47
2017-11-12T04:59:46.973Z,22.80
2017-11-12T05:02:15.065Z,19.63
2017-11-12T05:04:43.909Z,19.87
2017-11-12T05:07:12.105Z,20.80
2017-11-12T05:09:40.188Z,22.20
2017-11-12T05:12:09.045Z,22.50
2017-11-12T05:14:37.212Z,21.40
2017-11-12T05:17:05.306Z,24.73
2017-11-12T05:19:33.388Z,22.47
2017-11-12T05:22:01.562Z,20.60
2017-11-12T05:24:29.640Z,22.47
2017-11-12T05:26:58.489Z,22.73
2017-11-12T05:29:26.579Z,19.87
2017-11-12T05:31:54.659Z,23.23
2017-11-12T05:34:23.510Z,19.93
2017-11-12T05:36:51.601Z,28.40
2017-11-12T05:39:19.681Z,20.93
2017-11-12T05:41:47.768Z,21.77
2017-11-12T05:44:16.613Z,20.03
2017-11-12T05:46:44.697Z,24.83
2017-11-12T05:49:12.784Z,22.73
2017-11-12T05:51:40.876Z,19.60
2017-11-12T05:54:09.721Z,21.17
2017-11-12T05:56:37.813Z,29.47
2017-11-12T05:59:05.905Z,20.23
2017-11-12T06:01:34.758Z,20.83
2017-11-12T06:04:02.848Z,22.90
2017-11-12T06:06:31.706Z,21.50
2017-11-12T06:08:59.801Z,24.47
2017-11-12T06:11:27.900Z,26.83
2017-11-12T06:13:55.984Z,36.00
2017-11-12T06:16:24.084Z,28.30
2017-11-12T06:18:52.180Z,28.20
2017-11-12T06:21:20.262Z,27.83
2017-11-12T06:23:49.130Z,26.83
2017-11-12T06:26:17.207Z,18.73
2017-11-12T06:28:45.296Z,22.00
2017-11-12T06:31:14.146Z,19.30
2017-11-12T06:33:42.228Z,23.57
2017-11-12T06:36:10.312Z,23.80
2017-11-12T06:38:38.397Z,27.00
2017-11-12T06:41:07.240Z,28.80
2017-11-12T06:43:35.340Z,23.92
2017-11-12T06:46:03.424Z,26.13
2017-11-12T06:48:32.270Z,22.43
2017-11-12T06:51:00.349Z,25.43
2017-11-12T06:53:28.440Z,24.37
2017-11-12T06:55:56.525Z,26.00
2017-11-12T06:58:25.387Z,24.37
2017-11-12T07:00:53.469Z,19.00
2017-11-12T07:03:21.644Z,18.90
2017-11-12T07:05:49.730Z,22.23
2017-11-12T07:08:18.588Z,25.50
2017-11-12T07:10:46.674Z,32.60
2017-11-12T07:13:14.756Z,26.00
2017-11-12T07:15:43.612Z,21.20
2017-11-12T07:18:11.703Z,24.23
2017-11-12T07:20:39.797Z,22.70
2017-11-12T07:23:08.764Z,21.67
2017-11-12T07:25:36.857Z,19.10
2017-11-12T07:28:04.944Z,24.60
2017-11-12T07:30:33.056Z,25.87
2017-11-12T07:33:01.248Z,26.07
2017-11-12T07:35:29.321Z,28.50
2017-11-12T07:37:57.417Z,28.63
2017-11-12T07:40:26.269Z,28.00
2017-11-12T07:42:54.556Z,23.60
2017-11-12T07:45:22.832Z,30.77
2017-11-12T07:47:50.920Z,26.77
2017-11-12T07:50:19.762Z,28.37
2017-11-12T07:52:47.853Z,26.40
2017-11-12T07:55:15.939Z,29.53
2017-11-12T07:57:44.033Z,28.30
2017-11-12T08:00:12.119Z,30.47
2017-11-12T08:02:40.200Z,28.10
2017-11-12T08:05:08.293Z,34.67
2017-11-12T08:07:36.480Z,26.57
2017-11-12T08:10:04.570Z,23.40
2017-11-12T08:12:33.423Z,28.13
2017-11-12T08:15:01.516Z,26.33
2017-11-12T08:17:29.613Z,24.67
2017-11-12T08:19:57.704Z,27.83
2017-11-12T08:22:25.793Z,26.17
2017-11-12T08:24:53.996Z,28.90
2017-11-12T08:27:22.256Z,24.40
2017-11-12T08:29:50.429Z,28.33
2017-11-12T08:32:18.512Z,25.53
2017-11-12T08:34:46.777Z,20.17
2017-11-12T08:37:14.852Z,21.57
2017-11-12T08:39:42.946Z,25.63
2017-11-12T08:42:11.922Z,23.70
2017-11-12T08:44:40.004Z,22.53
2017-11-12T08:47:08.859Z,19.40
2017-11-12T08:49:36.939Z,20.83
2017-11-12T08:52:05.016Z,17.43
2017-11-12T08:54:33.096Z,21.90
2017-11-12T08:57:01.180Z,22.10
2017-11-12T08:59:30.041Z,20.67
2017-11-12T09:01:58.121Z,24.37
2017-11-12T09:04:26.224Z,24.80
2017-11-12T09:06:54.337Z,24.60
2017-11-12T09:09:22.429Z,22.37
2017-11-12T09:11:50.517Z,21.90
2017-11-12T09:14:19.378Z,21.87
2017-11-12T09:16:47.463Z,23.97
2017-11-12T09:19:15.555Z,19.30
2017-11-12T09:21:44.404Z,19.70
2017-11-12T09:24:12.498Z,27.13
2017-11-12T09:26:40.665Z,19.00
2017-11-12T09:29:10.251Z,26.17
2017-11-12T09:31:38.444Z,21.17
2017-11-12T09:34:06.548Z,17.80
2017-11-12T09:36:34.627Z,21.07
2017-11-12T09:39:02.724Z,28.63
2017-11-12T09:41:30.811Z,22.37
2017-11-12T09:43:58.895Z,26.70
2017-11-12T09:46:27.750Z,21.20
2017-11-12T09:48:55.907Z,18.90
2017-11-12T09:51:23.992Z,23.33
2017-11-12T09:53:52.084Z,27.53
2017-11-12T09:56:20.172Z,18.60
2017-11-12T09:58:48.279Z,15.33
2017-11-12T10:01:16.365Z,14.30
2017-11-12T10:03:44.456Z,18.03
2017-11-12T10:06:12.558Z,14.50
2017-11-12T10:08:40.635Z,14.33
2017-11-12T10:11:08.739Z,11.47
2017-11-12T10:13:36.805Z,10.87
2017-11-12T10:16:04.908Z,11.63
2017-11-12T10:18:33.057Z,12.17
2017-11-12T10:21:01.149Z,11.55
2017-11-12T10:23:29.244Z,11.18
2017-11-12T10:25:57.331Z,10.60
2017-11-12T10:28:26.181Z,10.33
2017-11-12T10:30:54.296Z,8.80
2017-11-12T10:33:22.376Z,7.55
2017-11-12T10:35:50.489Z,6.60
2017-11-12T10:38:18.578Z,6.97
2017-11-12T10:40:46.674Z,7.15
2017-11-12T10:43:15.521Z,5.25
2017-11-12T10:45:43.597Z,6.03
2017-11-12T10:48:11.736Z,7.60
2017-11-12T10:50:39.813Z,6.32
2017-11-12T10:53:07.900Z,7.05
2017-11-12T10:55:35.981Z,5.25
2017-11-12T10:58:04.070Z,6.35
2017-11-12T11:00:32.140Z,6.75
2017-11-12T11:03:01.006Z,6.75
2017-11-12T11:05:29.093Z,11.00
2017-11-12T11:07:58.681Z,5.30
2017-11-12T11:10:26.761Z,5.00
2017-11-12T11:12:54.853Z,4.12
2017-11-12T11:15:23.023Z,4.62
2017-11-12T11:17:52.622Z,4.45
2017-11-12T11:20:20.701Z,4.80
2017-11-12T11:22:48.872Z,4.65
2017-11-12T11:25:16.955Z,5.15
2017-11-12T11:27:45.196Z,6.00
2017-11-12T11:30:13.293Z,7.32
2017-11-12T11:32:42.253Z,7.65
2017-11-12T11:35:10.353Z,7.15
2017-11-12T11:37:38.433Z,6.70
2017-11-12T11:40:07.284Z,6.55
2017-11-12T11:42:35.357Z,9.15
2017-11-12T11:45:03.437Z,9.57
2017-11-12T11:47:31.514Z,7.80
2017-11-12T11:49:59.684Z,8.27
2017-11-12T11:52:27.752Z,8.55
2017-11-12T11:54:55.865Z,8.68
2017-11-12T11:57:23.936Z,9.50
2017-11-12T11:59:52.129Z,9.18
2017-11-12T12:02:20.208Z,10.40
2017-11-12T12:04:48.297Z,8.82
2017-11-12T12:07:16.388Z,10.48
2017-11-12T12:09:45.266Z,11.73
2017-11-12T12:12:13.340Z,8.32
2017-11-12T12:14:41.484Z,8.30
2017-11-12T12:17:09.565Z,8.13
2017-11-12T12:19:37.636Z,8.88
2017-11-12T12:22:05.732Z,10.13
2017-11-12T12:24:34.587Z,9.50
2017-11-12T12:27:02.682Z,10.00
2017-11-12T12:29:30.769Z,9.20
2017-11-12T12:31:59.617Z,9.30
2017-11-12T12:34:27.704Z,10.45
2017-11-12T12:36:55.793Z,11.85
2017-11-12T12:39:25.214Z,8.85
2017-11-12T12:41:53.310Z,12.95
2017-11-12T12:44:21.400Z,11.12
2017-11-12T12:46:49.491Z,10.70
2017-11-12T12:49:17.583Z,12.20
2017-11-12T12:51:46.462Z,12.27
2017-11-12T12:54:15.317Z,11.65
2017-11-12T12:56:43.404Z,12.75
2017-11-12T12:59:11.505Z,10.88
2017-11-12T13:01:40.474Z,16.62
2017-11-12T13:04:08.564Z,12.20
2017-11-12T13:06:36.760Z,12.50
2017-11-12T13:09:04.850Z,10.35
2017-11-12T13:11:33.036Z,10.77
2017-11-12T13:14:01.122Z,9.95
2017-11-12T13:16:29.202Z,10.52
2017-11-12T13:18:57.294Z,11.95
2017-11-12T13:21:26.146Z,11.65
2017-11-12T13:23:55.004Z,9.70
2017-11-12T13:26:23.083Z,9.07
2017-11-12T13:28:51.222Z,10.55
2017-11-12T13:31:19.353Z,11.43
2017-11-12T13:33:47.548Z,12.07
2017-11-12T13:36:17.147Z,12.85
2017-11-12T13:38:45.321Z,10.32
2017-11-12T13:41:13.404Z,8.82
2017-11-12T13:43:41.492Z,11.50
2017-11-12T13:46:09.573Z,8.38
2017-11-12T13:48:37.648Z,10.30
2017-11-12T13:51:05.754Z,10.38
2017-11-12T13:53:33.833Z,9.85
2017-11-12T13:56:01.923Z,10.25
2017-11-12T13:58:30.776Z,14.02
2017-11-12T14:00:58.890Z,14.70
2017-11-12T14:03:27.744Z,14.07
2017-11-12T14:05:55.828Z,9.48
2017-11-12T14:08:23.952Z,12.15
2017-11-12T14:10:52.056Z,9.35
2017-11-12T14:13:20.144Z,6.90
2017-11-12T14:15:48.224Z,5.15
2017-11-12T14:18:17.081Z,6.80
2017-11-12T14:20:45.162Z,6.05
2017-11-12T14:23:13.249Z,8.30
2017-11-12T14:25:41.333Z,7.10
2017-11-12T14:28:10.186Z,6.32
2017-11-12T14:30:39.030Z,5.07
2017-11-12T14:33:07.113Z,4.28
2017-11-12T14:35:35.203Z,7.37
2017-11-12T14:38:03.381Z,6.82
2017-11-12T14:40:31.464Z,6.37
2017-11-12T14:42:59.550Z,4.72
2017-11-12T14:45:27.630Z,5.55
2017-11-12T14:47:55.696Z,6.82
2017-11-12T14:50:23.789Z,6.90
2017-11-12T14:52:51.869Z,9.38
2017-11-12T14:55:19.977Z,8.15
2017-11-12T14:57:48.052Z,5.60
2017-11-12T15:00:16.902Z,8.07
2017-11-12T15:02:44.993Z,11.05
2017-11-12T15:05:13.064Z,7.47
2017-11-12T15:07:41.149Z,8.98
2017-11-12T15:10:10.003Z,10.90
2017-11-12T15:12:38.085Z,8.02
2017-11-12T15:15:06.173Z,11.43
2017-11-12T15:17:35.026Z,11.25
2017-11-12T15:20:03.113Z,9.45
2017-11-12T15:22:31.199Z,13.30
2017-11-12T15:25:00.057Z,9.60
2017-11-12T15:27:28.161Z,6.87
2017-11-12T15:29:56.245Z,10.95
2017-11-12T15:32:25.091Z,12.95
2017-11-12T15:34:53.172Z,12.27
2017-11-12T15:37:21.348Z,16.33
2017-11-12T15:39:51.069Z,14.82
2017-11-12T15:42:19.212Z,11.68
2017-11-12T15:44:47.302Z,14.52
2017-11-12T15:47:15.386Z,16.12
2017-11-12T15:49:43.471Z,16.10
2017-11-12T15:52:12.441Z,12.50
2017-11-12T15:54:40.523Z,12.40
2017-11-12T15:57:09.376Z,12.18
2017-11-12T15:59:37.468Z,12.93
2017-11-12T16:02:05.552Z,9.30
2017-11-12T16:04:34.427Z,10.70
2017-11-12T16:07:02.508Z,9.00
2017-11-12T16:09:31.348Z,12.75
2017-11-12T16:11:59.428Z,9.85
2017-11-12T16:14:27.493Z,8.52
2017-11-12T16:16:55.574Z,5.25
2017-11-12T16:19:23.654Z,8.18
2017-11-12T16:21:51.744Z,8.30
2017-11-12T16:24:20.582Z,7.30
2017-11-12T16:26:48.665Z,6.80
2017-11-12T16:29:16.742Z,6.10
2017-11-12T16:31:44.816Z,7.12
2017-11-12T16:34:12.884Z,8.25
2017-11-12T16:36:40.969Z,8.55
2017-11-12T16:39:09.121Z,7.35
2017-11-12T16:41:37.234Z,7.20
2017-11-12T16:44:06.205Z,6.37
2017-11-12T16:46:34.361Z,5.47
2017-11-12T16:49:02.446Z,7.35
2017-11-12T16:51:30.512Z,6.25
2017-11-12T16:53:58.698Z,7.97
2017-11-12T16:56:26.937Z,5.87
2017-11-12T16:58:55.022Z,6.20
2017-11-12T17:01:23.088Z,5.95
2017-11-12T17:03:51.178Z,7.55
2017-11-12T17:06:19.246Z,6.80
2017-11-12T17:08:47.323Z,6.65
2017-11-12T17:11:15.401Z,7.90
2017-11-12T17:13:44.246Z,5.37
2017-11-12T17:16:12.350Z,7.85
2017-11-12T17:18:40.542Z,7.03
2017-11-12T17:21:09.424Z,7.60
2017-11-12T17:23:38.265Z,7.97
2017-11-12T17:26:06.346Z,6.90
2017-11-12T17:28:34.548Z,11.00
2017-11-12T17:31:02.640Z,12.75
2017-11-12T17:33:33.865Z,11.18
2017-11-12T17:36:02.110Z,8.73
2017-11-12T17:38:34.509Z,7.18
2017-11-12T17:41:03.215Z,9.18
2017-11-12T17:43:31.292Z,7.55
2017-11-12T17:45:59.454Z,12.82
2017-11-12T17:48:27.521Z,8.57
2017-11-12T17:50:55.592Z,9.95
2017-11-12T17:53:23.685Z,10.25
2017-11-12T17:55:53.271Z,9.73
2017-11-12T17:58:21.356Z,7.95
2017-11-12T18:00:49.553Z,10.90
2017-11-12T18:03:17.640Z,8.45
2017-11-12T18:05:45.721Z,11.20
2017-11-12T18:08:13.808Z,8.65
2017-11-12T18:10:41.904Z,10.40
2017-11-12T18:13:10.000Z,8.18
2017-11-12T18:15:38.179Z,9.13
2017-11-12T18:18:06.262Z,9.30
2017-11-12T18:20:34.355Z,11.00
2017-11-12T18:23:02.436Z,11.23
2017-11-12T18:25:30.540Z,12.00
2017-11-12T18:27:58.617Z,11.27
2017-11-12T18:30:26.710Z,10.15
2017-11-12T18:32:55.556Z,9.60
2017-11-12T18:35:23.649Z,9.70
2017-11-12T18:37:51.728Z,10.07
2017-11-12T18:40:20.618Z,9.73
2017-11-12T18:42:48.689Z,9.35
2017-11-12T18:45:17.541Z,8.60
2017-11-12T18:47:45.895Z,9.63
2017-11-12T18:50:13.980Z,9.00
2017-11-12T18:52:42.061Z,8.93
2017-11-12T18:55:12.560Z,8.75
2017-11-12T18:57:41.522Z,8.18
2017-11-12T19:00:26.193Z,8.65
2017-11-12T19:03:02.798Z,7.87
2017-11-12T19:05:36.420Z,8.35
2017-11-12T19:08:04.500Z,8.88
2017-11-12T19:10:32.594Z,7.97
2017-11-12T19:13:00.677Z,8.45
2017-11-12T19:15:28.746Z,8.38
2017-11-12T19:17:58.618Z,7.75
2017-11-12T19:20:31.585Z,7.35
2017-11-12T19:36:22.195Z,9.50
2017-11-12T19:38:50.269Z,8.45
2017-11-12T19:41:19.112Z,7.97
2017-11-12T19:43:47.196Z,9.35
2017-11-12T19:46:15.283Z,7.78
2017-11-12T19:48:43.401Z,7.90
2017-11-12T19:51:11.613Z,8.25
2017-11-12T19:53:39.705Z,8.68
2017-11-12T19:56:07.784Z,8.93
2017-11-12T19:58:36.644Z,9.00
2017-11-12T20:01:04.755Z,9.05
2017-11-12T20:03:33.604Z,10.05
2017-11-12T20:06:01.695Z,10.48
2017-11-12T20:08:29.797Z,10.27
2017-11-12T20:10:57.889Z,10.30
2017-11-12T20:13:26.076Z,11.15
2017-11-12T20:15:54.168Z,11.18
2017-11-12T20:18:22.320Z,10.77
2017-11-12T20:20:50.395Z,11.88
2017-11-12T20:23:18.566Z,13.70
2017-11-12T20:25:46.670Z,11.95
2017-11-12T20:28:15.644Z,14.60
2017-11-12T20:30:45.240Z,12.70
2017-11-12T20:33:13.460Z,13.65
2017-11-12T20:35:41.586Z,13.65
2017-11-12T20:38:09.796Z,14.75
2017-11-12T20:40:37.914Z,13.52
2017-11-12T20:43:05.993Z,13.80
2017-11-12T20:45:34.083Z,13.82
2017-11-12T20:48:02.196Z,14.90
2017-11-12T20:50:30.273Z,15.88
2017-11-12T20:52:58.361Z,12.77
2017-11-12T20:55:26.440Z,14.68
2017-11-12T20:57:54.533Z,14.10
2017-11-12T21:00:22.626Z,15.27
2017-11-12T21:02:51.481Z,12.90
2017-11-12T21:05:25.249Z,13.55
2017-11-12T21:07:53.337Z,12.27
2017-11-12T21:10:21.424Z,12.02
2017-11-12T21:12:49.534Z,11.93
2017-11-12T21:15:17.608Z,12.20
2017-11-12T21:17:45.690Z,12.02
2017-11-12T21:20:32.424Z,13.02
2017-11-12T21:23:03.076Z,12.30
2017-11-12T21:25:31.172Z,11.88
2017-11-12T21:28:00.573Z,11.48
2017-11-12T21:30:29.972Z,10.80
2017-11-12T21:33:01.412Z,12.45
2017-11-12T21:38:33.443Z,12.98
2017-11-12T21:41:01.529Z,11.82
2017-11-12T21:43:29.716Z,13.45
2017-11-12T21:45:57.814Z,14.25
2017-11-12T21:48:26.675Z,15.05
2017-11-12T21:50:54.883Z,14.45
2017-11-12T21:53:22.950Z,15.88
2017-11-12T21:55:51.050Z,14.02
2017-11-12T21:58:19.290Z,13.43
2017-11-12T22:00:47.449Z,14.02
2017-11-12T22:03:15.537Z,14.00
2017-11-12T22:05:44.389Z,14.40
2017-11-12T22:08:12.483Z,14.10
2017-11-12T22:10:41.339Z,15.23
2017-11-12T22:13:09.430Z,14.93
2017-11-12T22:15:37.615Z,14.27
2017-11-12T22:18:06.473Z,16.10
2017-11-12T22:20:34.628Z,15.18
2017-11-12T22:23:02.721Z,15.40
2017-11-12T22:25:30.821Z,15.48
2017-11-12T22:27:59.759Z,14.00
2017-11-12T22:30:27.846Z,13.70
2017-11-12T22:32:55.950Z,15.00
2017-11-12T22:35:24.038Z,14.95
2017-11-12T22:37:52.893Z,14.50
2017-11-12T22:40:20.985Z,14.30
2017-11-12T22:42:49.880Z,13.95
2017-11-12T22:45:17.967Z,14.65
2017-11-12T22:47:46.052Z,13.68
2017-11-12T22:50:14.157Z,14.10
2017-11-12T22:52:42.252Z,14.43
2017-11-12T22:55:11.116Z,14.55
2017-11-12T22:57:39.212Z,13.73
2017-11-12T23:00:08.065Z,14.00
2017-11-12T23:02:36.260Z,13.57
2017-11-12T23:05:04.353Z,12.77
2017-11-12T23:07:32.441Z,15.35
2017-11-12T23:10:00.694Z,14.73
2017-11-12T23:12:29.540Z,14.00
2017-11-12T23:14:57.631Z,15.05
2017-11-12T23:17:25.721Z,13.57
2017-11-12T23:19:54.596Z,13.70
2017-11-12T23:22:22.681Z,13.40
2017-11-12T23:24:51.545Z,14.35
2017-11-12T23:27:19.633Z,13.95
2017-11-12T23:29:48.707Z,15.50
2017-11-12T23:32:16.785Z,14.13
2017-11-12T23:34:44.875Z,13.88
2017-11-12T23:37:13.724Z,15.30
2017-11-12T23:39:41.834Z,15.07
2017-11-12T23:42:10.685Z,16.50
2017-11-12T23:44:38.777Z,14.40
2017-11-12T23:47:06.852Z,14.75
2017-11-12T23:49:35.117Z,15.02
2017-11-12T23:52:03.268Z,14.85
2017-11-12T23:54:31.539Z,14.90
2017-11-12T23:56:59.745Z,16.23
2017-11-12T23:59:28.605Z,17.67
